sensor_id;sensor_type;location;lat;lon;timestamp;P1;durP1;ratioP1;P2;durP2;ratioP2
70045;SDS011;57385;41.832;23.494;2022-07-15T00:00:10;2.88;;;2.67;;
70045;SDS011;57385;41.832;23.494;2022-07-15T00:00:30;2.80;;;2.60;;
70045;SDS011;57385;41.832;23.494;2022-07-15T00:00:50;3.40;;;2.63;;
70045;SDS011;57385;41.832;23.494;2022-07-15T00:01:10;2.80;;;2.60;;
70045;SDS011;57385;41.832;23.494;2022-07-15T00:01:29;3.70;;;2.80;;
70045;SDS011;57385;41.832;23.494;2022-07-15T00:01:49;5.18;;;2.85;;
70045;SDS011;57385;41.832;23.494;2022-07-15T00:02:08;3.30;;;2.77;;
70045;SDS011;57385;41.832;23.494;2022-07-15T00:02:28;2.65;;;2.45;;
70045;SDS011;57385;41.832;23.494;2022-07-15T00:02:48;2.83;;;2.55;;
70045;SDS011;57385;41.832;23.494;2022-07-15T00:03:07;3.63;;;2.60;;
70045;SDS011;57385;41.832;23.494;2022-07-15T00:03:26;4.35;;;2.58;;
70045;SDS011;57385;41.832;23.494;2022-07-15T00:03:46;3.63;;;2.60;;
70045;SDS011;57385;41.832;23.494;2022-07-15T00:04:05;3.65;;;2.72;;
70045;SDS011;57385;41.832;23.494;2022-07-15T00:04:25;3.57;;;2.40;;
70045;SDS011;57385;41.832;23.494;2022-07-15T00:04:44;3.75;;;2.30;;
70045;SDS011;57385;41.832;23.494;2022-07-15T00:05:04;4.13;;;2.27;;
70045;SDS011;57385;41.832;23.494;2022-07-15T00:05:25;3.05;;;2.13;;
70045;SDS011;57385;41.832;23.494;2022-07-15T00:05:44;2.40;;;2.20;;
70045;SDS011;57385;41.832;23.494;2022-07-15T00:06:04;2.40;;;2.20;;
70045;SDS011;57385;41.832;23.494;2022-07-15T00:06:23;2.50;;;2.30;;
70045;SDS011;57385;41.832;23.494;2022-07-15T00:06:42;2.43;;;2.20;;
70045;SDS011;57385;41.832;23.494;2022-07-15T00:07:02;2.22;;;2.10;;
70045;SDS011;57385;41.832;23.494;2022-07-15T00:07:23;2.40;;;2.20;;
70045;SDS011;57385;41.832;23.494;2022-07-15T00:07:42;4.05;;;2.20;;
70045;SDS011;57385;41.832;23.494;2022-07-15T00:08:02;2.70;;;2.15;;
70045;SDS011;57385;41.832;23.494;2022-07-15T00:08:21;2.83;;;2.20;;
70045;SDS011;57385;41.832;23.494;2022-07-15T00:08:41;2.70;;;1.90;;
70045;SDS011;57385;41.832;23.494;2022-07-15T00:09:00;4.10;;;2.00;;
70045;SDS011;57385;41.832;23.494;2022-07-15T00:09:20;3.27;;;2.07;;
70045;SDS011;57385;41.832;23.494;2022-07-15T00:09:39;2.60;;;2.38;;
70045;SDS011;57385;41.832;23.494;2022-07-15T00:09:59;2.50;;;2.30;;
70045;SDS011;57385;41.832;23.494;2022-07-15T00:10:19;2.70;;;2.40;;
70045;SDS011;57385;41.832;23.494;2022-07-15T00:10:38;3.17;;;2.35;;
70045;SDS011;57385;41.832;23.494;2022-07-15T00:10:57;3.80;;;2.33;;
70045;SDS011;57385;41.832;23.494;2022-07-15T00:11:17;2.90;;;2.40;;
70045;SDS011;57385;41.832;23.494;2022-07-15T00:11:37;4.30;;;2.70;;
70045;SDS011;57385;41.832;23.494;2022-07-15T00:11:56;4.10;;;2.63;;
70045;SDS011;57385;41.832;23.494;2022-07-15T00:12:15;2.50;;;2.27;;
70045;SDS011;57385;41.832;23.494;2022-07-15T00:12:35;3.10;;;2.63;;
70045;SDS011;57385;41.832;23.494;2022-07-15T00:12:56;3.40;;;3.00;;
70045;SDS011;57385;41.832;23.494;2022-07-15T00:13:17;4.22;;;3.15;;
70045;SDS011;57385;41.832;23.494;2022-07-15T00:13:36;5.60;;;3.57;;
70045;SDS011;57385;41.832;23.494;2022-07-15T00:13:56;5.00;;;3.50;;
70045;SDS011;57385;41.832;23.494;2022-07-15T00:14:15;4.20;;;3.63;;
70045;SDS011;57385;41.832;23.494;2022-07-15T00:14:34;5.38;;;3.63;;
70045;SDS011;57385;41.832;23.494;2022-07-15T00:14:54;6.27;;;3.60;;
70045;SDS011;57385;41.832;23.494;2022-07-15T00:15:13;5.75;;;3.67;;
70045;SDS011;57385;41.832;23.494;2022-07-15T00:15:33;4.20;;;3.37;;
70045;SDS011;57385;41.832;23.494;2022-07-15T00:15:53;5.30;;;3.37;;
70045;SDS011;57385;41.832;23.494;2022-07-15T00:16:12;5.00;;;3.43;;
70045;SDS011;57385;41.832;23.494;2022-07-15T00:16:31;3.93;;;3.13;;
70045;SDS011;57385;41.832;23.494;2022-07-15T00:16:51;4.55;;;3.45;;
70045;SDS011;57385;41.832;23.494;2022-07-15T00:17:10;5.43;;;3.50;;
70045;SDS011;57385;41.832;23.494;2022-07-15T00:17:30;5.90;;;3.37;;
70045;SDS011;57385;41.832;23.494;2022-07-15T00:17:49;4.90;;;3.13;;
70045;SDS011;57385;41.832;23.494;2022-07-15T00:18:09;4.03;;;2.97;;
70045;SDS011;57385;41.832;23.494;2022-07-15T00:18:28;3.80;;;3.10;;
70045;SDS011;57385;41.832;23.494;2022-07-15T00:18:48;4.82;;;3.33;;
70045;SDS011;57385;41.832;23.494;2022-07-15T00:19:07;3.93;;;2.97;;
70045;SDS011;57385;41.832;23.494;2022-07-15T00:19:27;3.92;;;3.00;;
70045;SDS011;57385;41.832;23.494;2022-07-15T00:19:47;4.40;;;3.00;;
70045;SDS011;57385;41.832;23.494;2022-07-15T00:20:06;2.70;;;2.50;;
70045;SDS011;57385;41.832;23.494;2022-07-15T00:20:26;7.60;;;2.70;;
70045;SDS011;57385;41.832;23.494;2022-07-15T00:20:47;6.07;;;3.05;;
70045;SDS011;57385;41.832;23.494;2022-07-15T00:21:07;3.60;;;2.83;;
70045;SDS011;57385;41.832;23.494;2022-07-15T00:21:26;3.17;;;2.57;;
70045;SDS011;57385;41.832;23.494;2022-07-15T00:21:46;3.93;;;2.80;;
70045;SDS011;57385;41.832;23.494;2022-07-15T00:22:05;4.13;;;2.92;;
70045;SDS011;57385;41.832;23.494;2022-07-15T00:22:24;3.00;;;2.70;;
70045;SDS011;57385;41.832;23.494;2022-07-15T00:22:44;3.15;;;2.47;;
70045;SDS011;57385;41.832;23.494;2022-07-15T00:23:05;3.65;;;2.33;;
70045;SDS011;57385;41.832;23.494;2022-07-15T00:23:25;3.08;;;2.28;;
70045;SDS011;57385;41.832;23.494;2022-07-15T00:23:45;2.70;;;2.40;;
70045;SDS011;57385;41.832;23.494;2022-07-15T00:24:04;3.13;;;2.60;;
70045;SDS011;57385;41.832;23.494;2022-07-15T00:24:24;2.55;;;2.35;;
70045;SDS011;57385;41.832;23.494;2022-07-15T00:24:43;2.63;;;2.10;;
70045;SDS011;57385;41.832;23.494;2022-07-15T00:25:03;3.53;;;2.45;;
70045;SDS011;57385;41.832;23.494;2022-07-15T00:25:23;3.22;;;2.55;;
70045;SDS011;57385;41.832;23.494;2022-07-15T00:25:42;2.27;;;2.03;;
70045;SDS011;57385;41.832;23.494;2022-07-15T00:26:02;2.28;;;2.13;;
70045;SDS011;57385;41.832;23.494;2022-07-15T00:26:21;3.03;;;2.33;;
70045;SDS011;57385;41.832;23.494;2022-07-15T00:26:40;3.85;;;2.30;;
70045;SDS011;57385;41.832;23.494;2022-07-15T00:27:00;3.37;;;2.20;;
70045;SDS011;57385;41.832;23.494;2022-07-15T00:27:20;4.82;;;2.30;;
70045;SDS011;57385;41.832;23.494;2022-07-15T00:28:11;4.47;;;2.53;;
70045;SDS011;57385;41.832;23.494;2022-07-15T00:28:31;3.37;;;2.50;;
70045;SDS011;57385;41.832;23.494;2022-07-15T00:28:50;3.33;;;2.30;;
70045;SDS011;57385;41.832;23.494;2022-07-15T00:29:09;2.33;;;2.13;;
70045;SDS011;57385;41.832;23.494;2022-07-15T00:29:29;2.30;;;2.10;;
70045;SDS011;57385;41.832;23.494;2022-07-15T00:29:49;3.13;;;2.10;;
70045;SDS011;57385;41.832;23.494;2022-07-15T00:30:09;2.55;;;2.00;;
70045;SDS011;57385;41.832;23.494;2022-07-15T00:30:30;2.10;;;2.00;;
70045;SDS011;57385;41.832;23.494;2022-07-15T00:30:51;2.97;;;2.45;;
70045;SDS011;57385;41.832;23.494;2022-07-15T00:31:10;2.63;;;2.30;;
70045;SDS011;57385;41.832;23.494;2022-07-15T00:31:29;2.47;;;2.03;;
70045;SDS011;57385;41.832;23.494;2022-07-15T00:31:49;2.30;;;2.10;;
70045;SDS011;57385;41.832;23.494;2022-07-15T00:32:08;2.28;;;2.05;;
70045;SDS011;57385;41.832;23.494;2022-07-15T00:32:28;2.40;;;1.97;;
70045;SDS011;57385;41.832;23.494;2022-07-15T00:32:47;2.28;;;1.80;;
70045;SDS011;57385;41.832;23.494;2022-07-15T00:33:07;1.97;;;1.83;;
70045;SDS011;57385;41.832;23.494;2022-07-15T00:33:28;2.17;;;1.98;;
70045;SDS011;57385;41.832;23.494;2022-07-15T00:33:47;2.88;;;2.22;;
70045;SDS011;57385;41.832;23.494;2022-07-15T00:34:06;3.43;;;2.23;;
70045;SDS011;57385;41.832;23.494;2022-07-15T00:34:26;5.88;;;2.50;;
70045;SDS011;57385;41.832;23.494;2022-07-15T00:34:45;3.03;;;2.13;;
70045;SDS011;57385;41.832;23.494;2022-07-15T00:35:05;2.20;;;2.00;;
70045;SDS011;57385;41.832;23.494;2022-07-15T00:35:25;3.00;;;2.20;;
70045;SDS011;57385;41.832;23.494;2022-07-15T00:35:44;3.37;;;2.30;;
70045;SDS011;57385;41.832;23.494;2022-07-15T00:36:04;2.65;;;2.10;;
70045;SDS011;57385;41.832;23.494;2022-07-15T00:36:23;2.30;;;2.10;;
70045;SDS011;57385;41.832;23.494;2022-07-15T00:36:43;2.13;;;1.80;;
70045;SDS011;57385;41.832;23.494;2022-07-15T00:37:03;3.17;;;2.10;;
70045;SDS011;57385;41.832;23.494;2022-07-15T00:37:23;2.88;;;2.08;;
70045;SDS011;57385;41.832;23.494;2022-07-15T00:37:42;2.20;;;1.90;;
70045;SDS011;57385;41.832;23.494;2022-07-15T00:38:02;2.47;;;2.10;;
70045;SDS011;57385;41.832;23.494;2022-07-15T00:38:23;2.47;;;2.05;;
70045;SDS011;57385;41.832;23.494;2022-07-15T00:38:42;2.10;;;2.00;;
70045;SDS011;57385;41.832;23.494;2022-07-15T00:39:02;2.60;;;1.90;;
70045;SDS011;57385;41.832;23.494;2022-07-15T00:39:22;2.20;;;1.92;;
70045;SDS011;57385;41.832;23.494;2022-07-15T00:39:41;2.20;;;2.00;;
70045;SDS011;57385;41.832;23.494;2022-07-15T00:40:01;3.70;;;2.10;;
70045;SDS011;57385;41.832;23.494;2022-07-15T00:40:21;2.03;;;1.77;;
70045;SDS011;57385;41.832;23.494;2022-07-15T00:40:47;1.75;;;1.65;;
70045;SDS011;57385;41.832;23.494;2022-07-15T00:41:08;2.60;;;1.77;;
70045;SDS011;57385;41.832;23.494;2022-07-15T00:41:34;2.10;;;1.90;;
70045;SDS011;57385;41.832;23.494;2022-07-15T00:41:57;2.38;;;1.88;;
70045;SDS011;57385;41.832;23.494;2022-07-15T00:42:16;2.93;;;2.03;;
70045;SDS011;57385;41.832;23.494;2022-07-15T00:42:36;2.65;;;2.17;;
70045;SDS011;57385;41.832;23.494;2022-07-15T00:42:55;2.43;;;2.00;;
70045;SDS011;57385;41.832;23.494;2022-07-15T00:43:17;2.10;;;1.85;;
70045;SDS011;57385;41.832;23.494;2022-07-15T00:43:37;2.08;;;1.85;;
70045;SDS011;57385;41.832;23.494;2022-07-15T00:43:59;1.98;;;1.80;;
70045;SDS011;57385;41.832;23.494;2022-07-15T00:44:18;2.90;;;2.00;;
70045;SDS011;57385;41.832;23.494;2022-07-15T00:44:37;2.10;;;2.00;;
70045;SDS011;57385;41.832;23.494;2022-07-15T00:44:57;2.50;;;1.90;;
70045;SDS011;57385;41.832;23.494;2022-07-15T00:45:18;3.10;;;2.15;;
70045;SDS011;57385;41.832;23.494;2022-07-15T00:45:39;2.22;;;2.05;;
70045;SDS011;57385;41.832;23.494;2022-07-15T00:45:59;2.17;;;1.98;;
70045;SDS011;57385;41.832;23.494;2022-07-15T00:46:19;2.80;;;2.40;;
70045;SDS011;57385;41.832;23.494;2022-07-15T00:46:40;3.53;;;2.40;;
70045;SDS011;57385;41.832;23.494;2022-07-15T00:47:00;2.65;;;2.40;;
70045;SDS011;57385;41.832;23.494;2022-07-15T00:47:20;3.20;;;2.45;;
70045;SDS011;57385;41.832;23.494;2022-07-15T00:47:44;3.78;;;2.58;;
70045;SDS011;57385;41.832;23.494;2022-07-15T00:48:05;4.93;;;2.90;;
70045;SDS011;57385;41.832;23.494;2022-07-15T00:48:25;3.83;;;2.60;;
70045;SDS011;57385;41.832;23.494;2022-07-15T00:48:45;3.90;;;2.70;;
70045;SDS011;57385;41.832;23.494;2022-07-15T00:49:05;4.58;;;2.96;;
70045;SDS011;57385;41.832;23.494;2022-07-15T00:49:26;3.63;;;2.70;;
70045;SDS011;57385;41.832;23.494;2022-07-15T00:49:45;3.95;;;2.83;;
70045;SDS011;57385;41.832;23.494;2022-07-15T00:50:05;3.53;;;2.97;;
70045;SDS011;57385;41.832;23.494;2022-07-15T00:50:27;3.67;;;2.88;;
70045;SDS011;57385;41.832;23.494;2022-07-15T00:50:47;4.57;;;2.80;;
70045;SDS011;57385;41.832;23.494;2022-07-15T00:51:07;3.28;;;2.90;;
70045;SDS011;57385;41.832;23.494;2022-07-15T00:51:26;4.10;;;2.97;;
70045;SDS011;57385;41.832;23.494;2022-07-15T00:51:47;4.00;;;2.90;;
70045;SDS011;57385;41.832;23.494;2022-07-15T00:52:09;4.65;;;3.10;;
70045;SDS011;57385;41.832;23.494;2022-07-15T00:52:28;4.57;;;3.53;;
70045;SDS011;57385;41.832;23.494;2022-07-15T00:52:55;6.20;;;3.50;;
70045;SDS011;57385;41.832;23.494;2022-07-15T00:53:19;4.60;;;3.40;;
70045;SDS011;57385;41.832;23.494;2022-07-15T00:53:39;5.55;;;3.28;;
70045;SDS011;57385;41.832;23.494;2022-07-15T00:54:00;3.95;;;3.55;;
70045;SDS011;57385;41.832;23.494;2022-07-15T00:54:23;4.13;;;3.30;;
70045;SDS011;57385;41.832;23.494;2022-07-15T00:54:44;4.00;;;3.20;;
70045;SDS011;57385;41.832;23.494;2022-07-15T00:55:09;4.32;;;3.42;;
70045;SDS011;57385;41.832;23.494;2022-07-15T00:55:30;4.40;;;3.40;;
70045;SDS011;57385;41.832;23.494;2022-07-15T00:55:52;4.03;;;3.35;;
70045;SDS011;57385;41.832;23.494;2022-07-15T00:56:15;4.43;;;3.33;;
70045;SDS011;57385;41.832;23.494;2022-07-15T00:56:40;4.68;;;3.67;;
70045;SDS011;57385;41.832;23.494;2022-07-15T00:57:07;3.80;;;3.40;;
70045;SDS011;57385;41.832;23.494;2022-07-15T00:57:27;3.63;;;3.05;;
70045;SDS011;57385;41.832;23.494;2022-07-15T00:57:47;3.63;;;3.20;;
70045;SDS011;57385;41.832;23.494;2022-07-15T00:58:10;3.42;;;3.13;;
70045;SDS011;57385;41.832;23.494;2022-07-15T00:58:36;3.33;;;3.03;;
70045;SDS011;57385;41.832;23.494;2022-07-15T00:58:57;3.70;;;3.30;;
70045;SDS011;57385;41.832;23.494;2022-07-15T00:59:19;3.90;;;3.45;;
70045;SDS011;57385;41.832;23.494;2022-07-15T00:59:40;3.75;;;3.45;;
70045;SDS011;57385;41.832;23.494;2022-07-15T01:00:00;4.25;;;3.45;;
70045;SDS011;57385;41.832;23.494;2022-07-15T01:00:21;4.20;;;3.47;;
70045;SDS011;57385;41.832;23.494;2022-07-15T01:00:42;3.40;;;3.10;;
70045;SDS011;57385;41.832;23.494;2022-07-15T01:01:03;3.63;;;3.33;;
70045;SDS011;57385;41.832;23.494;2022-07-15T01:01:23;4.30;;;3.30;;
70045;SDS011;57385;41.832;23.494;2022-07-15T01:01:43;4.17;;;3.53;;
70045;SDS011;57385;41.832;23.494;2022-07-15T01:02:04;5.45;;;3.80;;
70045;SDS011;57385;41.832;23.494;2022-07-15T01:02:24;4.05;;;3.55;;
70045;SDS011;57385;41.832;23.494;2022-07-15T01:02:44;3.60;;;3.30;;
70045;SDS011;57385;41.832;23.494;2022-07-15T01:03:03;5.15;;;3.67;;
70045;SDS011;57385;41.832;23.494;2022-07-15T01:03:24;6.45;;;4.05;;
70045;SDS011;57385;41.832;23.494;2022-07-15T01:03:49;5.03;;;3.60;;
70045;SDS011;57385;41.832;23.494;2022-07-15T01:04:10;4.00;;;3.53;;
70045;SDS011;57385;41.832;23.494;2022-07-15T01:04:31;4.68;;;3.80;;
70045;SDS011;57385;41.832;23.494;2022-07-15T01:04:52;5.30;;;4.00;;
70045;SDS011;57385;41.832;23.494;2022-07-15T01:05:13;4.25;;;3.70;;
70045;SDS011;57385;41.832;23.494;2022-07-15T01:05:33;4.43;;;3.40;;
70045;SDS011;57385;41.832;23.494;2022-07-15T01:05:53;5.10;;;3.40;;
70045;SDS011;57385;41.832;23.494;2022-07-15T01:06:14;3.65;;;3.35;;
70045;SDS011;57385;41.832;23.494;2022-07-15T01:06:34;5.13;;;3.70;;
70045;SDS011;57385;41.832;23.494;2022-07-15T01:06:53;5.10;;;3.58;;
70045;SDS011;57385;41.832;23.494;2022-07-15T01:07:13;3.93;;;3.53;;
70045;SDS011;57385;41.832;23.494;2022-07-15T01:07:32;4.85;;;3.65;;
70045;SDS011;57385;41.832;23.494;2022-07-15T01:07:53;4.47;;;3.72;;
70045;SDS011;57385;41.832;23.494;2022-07-15T01:08:13;4.30;;;3.50;;
70045;SDS011;57385;41.832;23.494;2022-07-15T01:08:34;5.50;;;3.47;;
70045;SDS011;57385;41.832;23.494;2022-07-15T01:08:53;5.07;;;3.80;;
70045;SDS011;57385;41.832;23.494;2022-07-15T01:09:12;5.80;;;4.20;;
70045;SDS011;57385;41.832;23.494;2022-07-15T01:09:32;5.43;;;3.80;;
70045;SDS011;57385;41.832;23.494;2022-07-15T01:09:51;4.20;;;3.60;;
70045;SDS011;57385;41.832;23.494;2022-07-15T01:10:11;5.15;;;3.80;;
70045;SDS011;57385;41.832;23.494;2022-07-15T01:10:32;4.18;;;3.78;;
70045;SDS011;57385;41.832;23.494;2022-07-15T01:10:53;4.38;;;3.72;;
70045;SDS011;57385;41.832;23.494;2022-07-15T01:11:14;6.57;;;4.32;;
70045;SDS011;57385;41.832;23.494;2022-07-15T01:11:33;7.07;;;4.03;;
70045;SDS011;57385;41.832;23.494;2022-07-15T01:11:55;5.50;;;3.80;;
70045;SDS011;57385;41.832;23.494;2022-07-15T01:12:15;5.43;;;4.17;;
70045;SDS011;57385;41.832;23.494;2022-07-15T01:12:35;7.53;;;4.82;;
70045;SDS011;57385;41.832;23.494;2022-07-15T01:12:55;7.97;;;4.68;;
70045;SDS011;57385;41.832;23.494;2022-07-15T01:13:21;6.20;;;4.60;;
70045;SDS011;57385;41.832;23.494;2022-07-15T01:13:41;7.60;;;5.00;;
70045;SDS011;57385;41.832;23.494;2022-07-15T01:14:01;7.22;;;4.95;;
70045;SDS011;57385;41.832;23.494;2022-07-15T01:14:21;7.22;;;4.78;;
70045;SDS011;57385;41.832;23.494;2022-07-15T01:14:42;7.78;;;4.95;;
70045;SDS011;57385;41.832;23.494;2022-07-15T01:15:02;7.40;;;5.00;;
70045;SDS011;57385;41.832;23.494;2022-07-15T01:15:22;6.47;;;5.10;;
70045;SDS011;57385;41.832;23.494;2022-07-15T01:15:41;6.90;;;4.80;;
70045;SDS011;57385;41.832;23.494;2022-07-15T01:16:01;7.43;;;4.63;;
70045;SDS011;57385;41.832;23.494;2022-07-15T01:16:21;7.18;;;4.55;;
70045;SDS011;57385;41.832;23.494;2022-07-15T01:16:41;7.53;;;5.10;;
70045;SDS011;57385;41.832;23.494;2022-07-15T01:17:01;7.57;;;4.85;;
70045;SDS011;57385;41.832;23.494;2022-07-15T01:17:20;8.37;;;4.80;;
70045;SDS011;57385;41.832;23.494;2022-07-15T01:17:40;8.85;;;4.75;;
70045;SDS011;57385;41.832;23.494;2022-07-15T01:18:02;7.13;;;4.70;;
70045;SDS011;57385;41.832;23.494;2022-07-15T01:18:25;5.70;;;4.25;;
70045;SDS011;57385;41.832;23.494;2022-07-15T01:18:44;7.00;;;4.50;;
70045;SDS011;57385;41.832;23.494;2022-07-15T01:19:03;7.13;;;5.10;;
70045;SDS011;57385;41.832;23.494;2022-07-15T01:19:30;7.68;;;4.72;;
70045;SDS011;57385;41.832;23.494;2022-07-15T01:19:49;7.17;;;4.53;;
70045;SDS011;57385;41.832;23.494;2022-07-15T01:20:09;7.53;;;5.00;;
70045;SDS011;57385;41.832;23.494;2022-07-15T01:20:39;7.40;;;5.32;;
70045;SDS011;57385;41.832;23.494;2022-07-15T01:20:59;8.32;;;5.15;;
70045;SDS011;57385;41.832;23.494;2022-07-15T01:21:19;8.02;;;5.00;;
70045;SDS011;57385;41.832;23.494;2022-07-15T01:21:39;7.68;;;4.80;;
70045;SDS011;57385;41.832;23.494;2022-07-15T01:21:59;6.80;;;4.90;;
70045;SDS011;57385;41.832;23.494;2022-07-15T01:22:19;6.70;;;4.95;;
70045;SDS011;57385;41.832;23.494;2022-07-15T01:22:39;7.18;;;4.95;;
70045;SDS011;57385;41.832;23.494;2022-07-15T01:22:59;7.53;;;4.85;;
70045;SDS011;57385;41.832;23.494;2022-07-15T01:23:27;6.22;;;4.70;;
70045;SDS011;57385;41.832;23.494;2022-07-15T01:24:06;6.72;;;4.53;;
70045;SDS011;57385;41.832;23.494;2022-07-15T01:24:33;6.20;;;4.65;;
70045;SDS011;57385;41.832;23.494;2022-07-15T01:25:19;7.53;;;4.72;;
70045;SDS011;57385;41.832;23.494;2022-07-15T01:25:39;6.87;;;4.53;;
70045;SDS011;57385;41.832;23.494;2022-07-15T01:26:01;5.68;;;4.10;;
70045;SDS011;57385;41.832;23.494;2022-07-15T01:26:21;4.95;;;3.83;;
70045;SDS011;57385;41.832;23.494;2022-07-15T01:26:40;5.63;;;4.30;;
70045;SDS011;57385;41.832;23.494;2022-07-15T01:27:01;4.65;;;4.15;;
70045;SDS011;57385;41.832;23.494;2022-07-15T01:27:21;4.90;;;4.00;;
70045;SDS011;57385;41.832;23.494;2022-07-15T01:27:41;5.65;;;3.85;;
70045;SDS011;57385;41.832;23.494;2022-07-15T01:28:04;4.70;;;3.70;;
70045;SDS011;57385;41.832;23.494;2022-07-15T01:28:24;4.72;;;3.78;;
70045;SDS011;57385;41.832;23.494;2022-07-15T01:28:45;5.05;;;4.00;;
70045;SDS011;57385;41.832;23.494;2022-07-15T01:29:05;5.65;;;4.15;;
70045;SDS011;57385;41.832;23.494;2022-07-15T01:29:25;6.45;;;4.47;;
70045;SDS011;57385;41.832;23.494;2022-07-15T01:29:45;6.75;;;4.65;;
70045;SDS011;57385;41.832;23.494;2022-07-15T01:30:06;7.68;;;4.70;;
70045;SDS011;57385;41.832;23.494;2022-07-15T01:30:26;7.97;;;4.80;;
70045;SDS011;57385;41.832;23.494;2022-07-15T01:30:46;6.43;;;4.60;;
70045;SDS011;57385;41.832;23.494;2022-07-15T01:31:08;6.47;;;4.90;;
70045;SDS011;57385;41.832;23.494;2022-07-15T01:31:29;7.43;;;4.55;;
70045;SDS011;57385;41.832;23.494;2022-07-15T01:31:50;7.03;;;5.00;;
70045;SDS011;57385;41.832;23.494;2022-07-15T01:32:09;6.67;;;4.80;;
70045;SDS011;57385;41.832;23.494;2022-07-15T01:32:29;6.63;;;4.72;;
70045;SDS011;57385;41.832;23.494;2022-07-15T01:32:49;6.80;;;4.80;;
70045;SDS011;57385;41.832;23.494;2022-07-15T01:33:09;6.30;;;4.60;;
70045;SDS011;57385;41.832;23.494;2022-07-15T01:33:29;6.90;;;4.78;;
70045;SDS011;57385;41.832;23.494;2022-07-15T01:33:49;7.35;;;4.88;;
70045;SDS011;57385;41.832;23.494;2022-07-15T01:34:09;7.67;;;4.30;;
70045;SDS011;57385;41.832;23.494;2022-07-15T01:34:29;6.85;;;4.20;;
70045;SDS011;57385;41.832;23.494;2022-07-15T01:34:50;7.78;;;4.72;;
70045;SDS011;57385;41.832;23.494;2022-07-15T01:35:10;7.30;;;4.97;;
70045;SDS011;57385;41.832;23.494;2022-07-15T01:35:33;6.43;;;4.70;;
70045;SDS011;57385;41.832;23.494;2022-07-15T01:35:55;6.38;;;4.78;;
70045;SDS011;57385;41.832;23.494;2022-07-15T01:36:16;7.80;;;5.18;;
70045;SDS011;57385;41.832;23.494;2022-07-15T01:36:42;5.97;;;4.60;;
70045;SDS011;57385;41.832;23.494;2022-07-15T01:37:02;7.07;;;4.68;;
70045;SDS011;57385;41.832;23.494;2022-07-15T01:37:22;6.53;;;4.47;;
70045;SDS011;57385;41.832;23.494;2022-07-15T01:37:47;6.32;;;4.50;;
70045;SDS011;57385;41.832;23.494;2022-07-15T01:38:06;7.43;;;4.80;;
70045;SDS011;57385;41.832;23.494;2022-07-15T01:38:27;5.95;;;4.35;;
70045;SDS011;57385;41.832;23.494;2022-07-15T01:38:51;5.25;;;3.95;;
70045;SDS011;57385;41.832;23.494;2022-07-15T01:39:12;5.63;;;4.30;;
70045;SDS011;57385;41.832;23.494;2022-07-15T01:39:32;5.72;;;4.22;;
70045;SDS011;57385;41.832;23.494;2022-07-15T01:39:52;5.18;;;4.07;;
70045;SDS011;57385;41.832;23.494;2022-07-15T01:40:12;6.93;;;4.20;;
70045;SDS011;57385;41.832;23.494;2022-07-15T01:40:33;7.10;;;4.18;;
70045;SDS011;57385;41.832;23.494;2022-07-15T01:40:53;5.70;;;4.32;;
70045;SDS011;57385;41.832;23.494;2022-07-15T01:41:13;5.80;;;3.92;;
70045;SDS011;57385;41.832;23.494;2022-07-15T01:41:33;5.73;;;3.53;;
70045;SDS011;57385;41.832;23.494;2022-07-15T01:41:53;4.70;;;3.60;;
70045;SDS011;57385;41.832;23.494;2022-07-15T01:42:13;7.50;;;3.70;;
70045;SDS011;57385;41.832;23.494;2022-07-15T01:42:33;8.07;;;3.47;;
70045;SDS011;57385;41.832;23.494;2022-07-15T01:42:52;3.83;;;3.15;;
70045;SDS011;57385;41.832;23.494;2022-07-15T01:43:12;3.77;;;3.27;;
70045;SDS011;57385;41.832;23.494;2022-07-15T01:43:31;4.10;;;3.20;;
70045;SDS011;57385;41.832;23.494;2022-07-15T01:43:51;4.68;;;3.45;;
70045;SDS011;57385;41.832;23.494;2022-07-15T01:44:11;5.07;;;3.38;;
70045;SDS011;57385;41.832;23.494;2022-07-15T01:44:31;4.00;;;3.13;;
70045;SDS011;57385;41.832;23.494;2022-07-15T01:44:51;3.90;;;3.17;;
70045;SDS011;57385;41.832;23.494;2022-07-15T01:45:11;4.65;;;3.22;;
70045;SDS011;57385;41.832;23.494;2022-07-15T01:45:31;4.20;;;3.35;;
70045;SDS011;57385;41.832;23.494;2022-07-15T01:45:51;4.07;;;3.13;;
70045;SDS011;57385;41.832;23.494;2022-07-15T01:46:19;6.43;;;3.40;;
70045;SDS011;57385;41.832;23.494;2022-07-15T01:46:38;4.20;;;3.23;;
70045;SDS011;57385;41.832;23.494;2022-07-15T01:46:58;4.13;;;3.28;;
70045;SDS011;57385;41.832;23.494;2022-07-15T01:47:22;5.70;;;3.55;;
70045;SDS011;57385;41.832;23.494;2022-07-15T01:47:43;4.25;;;3.40;;
70045;SDS011;57385;41.832;23.494;2022-07-15T01:48:05;5.05;;;3.35;;
70045;SDS011;57385;41.832;23.494;2022-07-15T01:48:39;5.45;;;3.20;;
70045;SDS011;57385;41.832;23.494;2022-07-15T01:49:21;5.22;;;3.40;;
70045;SDS011;57385;41.832;23.494;2022-07-15T01:49:56;3.92;;;3.30;;
70045;SDS011;57385;41.832;23.494;2022-07-15T01:50:35;4.57;;;3.40;;
70045;SDS011;57385;41.832;23.494;2022-07-15T01:51:02;5.65;;;3.60;;
70045;SDS011;57385;41.832;23.494;2022-07-15T01:51:22;5.77;;;3.30;;
70045;SDS011;57385;41.832;23.494;2022-07-15T01:51:42;4.35;;;3.65;;
70045;SDS011;57385;41.832;23.494;2022-07-15T01:52:02;4.90;;;3.50;;
70045;SDS011;57385;41.832;23.494;2022-07-15T01:52:23;4.55;;;3.22;;
70045;SDS011;57385;41.832;23.494;2022-07-15T01:52:43;4.90;;;3.42;;
70045;SDS011;57385;41.832;23.494;2022-07-15T01:53:03;4.73;;;3.23;;
70045;SDS011;57385;41.832;23.494;2022-07-15T01:53:23;4.40;;;3.03;;
70045;SDS011;57385;41.832;23.494;2022-07-15T01:53:45;3.85;;;3.28;;
70045;SDS011;57385;41.832;23.494;2022-07-15T01:54:04;3.80;;;3.20;;
70045;SDS011;57385;41.832;23.494;2022-07-15T01:54:24;4.35;;;3.13;;
70045;SDS011;57385;41.832;23.494;2022-07-15T01:54:45;4.57;;;3.33;;
70045;SDS011;57385;41.832;23.494;2022-07-15T01:55:05;4.22;;;3.33;;
70045;SDS011;57385;41.832;23.494;2022-07-15T01:55:26;5.10;;;3.42;;
70045;SDS011;57385;41.832;23.494;2022-07-15T01:55:47;4.32;;;3.45;;
70045;SDS011;57385;41.832;23.494;2022-07-15T01:56:08;5.95;;;3.65;;
70045;SDS011;57385;41.832;23.494;2022-07-15T01:56:27;6.32;;;3.90;;
70045;SDS011;57385;41.832;23.494;2022-07-15T01:56:48;5.30;;;3.90;;
70045;SDS011;57385;41.832;23.494;2022-07-15T01:57:10;5.50;;;3.58;;
70045;SDS011;57385;41.832;23.494;2022-07-15T01:57:39;5.10;;;3.50;;
70045;SDS011;57385;41.832;23.494;2022-07-15T01:58:02;4.32;;;3.53;;
70045;SDS011;57385;41.832;23.494;2022-07-15T01:58:21;5.35;;;3.80;;
70045;SDS011;57385;41.832;23.494;2022-07-15T01:58:41;5.10;;;3.60;;
70045;SDS011;57385;41.832;23.494;2022-07-15T01:59:02;5.70;;;3.72;;
70045;SDS011;57385;41.832;23.494;2022-07-15T01:59:22;6.65;;;3.97;;
70045;SDS011;57385;41.832;23.494;2022-07-15T01:59:42;7.32;;;4.20;;
70045;SDS011;57385;41.832;23.494;2022-07-15T02:00:05;7.95;;;4.30;;
70045;SDS011;57385;41.832;23.494;2022-07-15T02:00:37;8.35;;;4.50;;
70045;SDS011;57385;41.832;23.494;2022-07-15T02:00:56;7.37;;;4.60;;
70045;SDS011;57385;41.832;23.494;2022-07-15T02:01:16;5.78;;;4.22;;
70045;SDS011;57385;41.832;23.494;2022-07-15T02:01:35;6.80;;;4.30;;
70045;SDS011;57385;41.832;23.494;2022-07-15T02:02:00;5.85;;;4.00;;
70045;SDS011;57385;41.832;23.494;2022-07-15T02:02:20;6.10;;;4.30;;
70045;SDS011;57385;41.832;23.494;2022-07-15T02:02:40;7.07;;;4.53;;
70045;SDS011;57385;41.832;23.494;2022-07-15T02:02:59;9.50;;;4.80;;
70045;SDS011;57385;41.832;23.494;2022-07-15T02:03:19;9.00;;;4.23;;
70045;SDS011;57385;41.832;23.494;2022-07-15T02:03:38;8.15;;;4.57;;
70045;SDS011;57385;41.832;23.494;2022-07-15T02:03:58;6.47;;;4.70;;